sensor_id;sensor_type;location;lat;lon;timestamp;P1;durP1;ratioP1;P2;durP2;ratioP2
49824;SDS011;35714;55.708;37.478;2023-08-07T00:00:36;6.03;;;3.28;;
49824;SDS011;35714;55.708;37.478;2023-08-07T00:03:02;6.25;;;2.60;;
49824;SDS011;35714;55.708;37.478;2023-08-07T00:05:28;5.80;;;2.70;;
49824;SDS011;35714;55.708;37.478;2023-08-07T00:07:54;5.60;;;2.70;;
49824;SDS011;35714;55.708;37.478;2023-08-07T00:10:20;7.90;;;2.95;;
49824;SDS011;35714;55.708;37.478;2023-08-07T00:12:45;8.35;;;3.40;;
49824;SDS011;35714;55.708;37.478;2023-08-07T00:15:11;4.85;;;2.67;;
49824;SDS011;35714;55.708;37.478;2023-08-07T00:17:37;5.43;;;3.00;;
49824;SDS011;35714;55.708;37.478;2023-08-07T00:20:03;4.68;;;2.80;;
49824;SDS011;35714;55.708;37.478;2023-08-07T00:22:30;5.43;;;2.40;;
49824;SDS011;35714;55.708;37.478;2023-08-07T00:24:56;6.97;;;3.15;;
49824;SDS011;35714;55.708;37.478;2023-08-07T00:27:22;7.95;;;3.10;;
49824;SDS011;35714;55.708;37.478;2023-08-07T00:29:47;6.18;;;3.05;;
49824;SDS011;35714;55.708;37.478;2023-08-07T00:32:13;5.20;;;2.60;;
49824;SDS011;35714;55.708;37.478;2023-08-07T00:34:40;6.22;;;3.00;;
49824;SDS011;35714;55.708;37.478;2023-08-07T00:37:06;4.53;;;2.67;;
49824;SDS011;35714;55.708;37.478;2023-08-07T00:39:33;7.88;;;2.92;;
49824;SDS011;35714;55.708;37.478;2023-08-07T00:41:59;7.15;;;3.00;;
49824;SDS011;35714;55.708;37.478;2023-08-07T00:44:24;6.18;;;2.60;;
49824;SDS011;35714;55.708;37.478;2023-08-07T00:46:50;9.35;;;3.33;;
49824;SDS011;35714;55.708;37.478;2023-08-07T00:49:17;4.78;;;2.90;;
49824;SDS011;35714;55.708;37.478;2023-08-07T00:51:44;6.55;;;3.15;;
49824;SDS011;35714;55.708;37.478;2023-08-07T00:54:11;5.15;;;2.63;;
49824;SDS011;35714;55.708;37.478;2023-08-07T00:56:39;6.90;;;2.85;;
49824;SDS011;35714;55.708;37.478;2023-08-07T00:59:05;5.72;;;3.15;;
49824;SDS011;35714;55.708;37.478;2023-08-07T01:01:32;6.38;;;2.83;;
49824;SDS011;35714;55.708;37.478;2023-08-07T01:03:59;7.25;;;3.42;;
49824;SDS011;35714;55.708;37.478;2023-08-07T01:06:26;11.23;;;3.38;;
49824;SDS011;35714;55.708;37.478;2023-08-07T01:08:52;7.05;;;3.63;;
49824;SDS011;35714;55.708;37.478;2023-08-07T01:11:36;7.80;;;3.35;;
49824;SDS011;35714;55.708;37.478;2023-08-07T01:16:52;7.63;;;3.05;;
49824;SDS011;35714;55.708;37.478;2023-08-07T01:19:27;6.00;;;3.30;;
49824;SDS011;35714;55.708;37.478;2023-08-07T01:24:32;8.48;;;3.30;;
49824;SDS011;35714;55.708;37.478;2023-08-07T01:27:00;6.22;;;2.80;;
49824;SDS011;35714;55.708;37.478;2023-08-07T01:29:38;10.25;;;3.53;;
49824;SDS011;35714;55.708;37.478;2023-08-07T01:32:14;9.43;;;3.67;;
49824;SDS011;35714;55.708;37.478;2023-08-07T01:34:45;9.48;;;3.75;;
49824;SDS011;35714;55.708;37.478;2023-08-07T01:37:13;6.57;;;3.05;;
49824;SDS011;35714;55.708;37.478;2023-08-07T01:39:39;7.10;;;3.28;;
49824;SDS011;35714;55.708;37.478;2023-08-07T01:42:06;7.32;;;3.40;;
49824;SDS011;35714;55.708;37.478;2023-08-07T01:44:32;5.95;;;3.13;;
49824;SDS011;35714;55.708;37.478;2023-08-07T01:46:58;7.88;;;3.20;;
49824;SDS011;35714;55.708;37.478;2023-08-07T01:49:24;7.00;;;3.13;;
49824;SDS011;35714;55.708;37.478;2023-08-07T01:51:49;7.75;;;3.15;;
49824;SDS011;35714;55.708;37.478;2023-08-07T01:54:15;7.88;;;3.42;;
49824;SDS011;35714;55.708;37.478;2023-08-07T01:56:41;6.25;;;2.85;;
49824;SDS011;35714;55.708;37.478;2023-08-07T01:59:06;8.93;;;3.33;;
49824;SDS011;35714;55.708;37.478;2023-08-07T02:01:32;9.68;;;3.90;;
49824;SDS011;35714;55.708;37.478;2023-08-07T02:03:58;10.63;;;4.18;;
49824;SDS011;35714;55.708;37.478;2023-08-07T02:06:25;6.03;;;3.45;;
49824;SDS011;35714;55.708;37.478;2023-08-07T02:08:51;6.80;;;3.38;;
49824;SDS011;35714;55.708;37.478;2023-08-07T02:11:16;9.05;;;3.42;;
49824;SDS011;35714;55.708;37.478;2023-08-07T02:13:42;8.57;;;3.13;;
49824;SDS011;35714;55.708;37.478;2023-08-07T02:16:08;5.65;;;2.67;;
49824;SDS011;35714;55.708;37.478;2023-08-07T02:18:34;6.05;;;3.00;;
49824;SDS011;35714;55.708;37.478;2023-08-07T02:21:20;5.45;;;2.60;;
49824;SDS011;35714;55.708;37.478;2023-08-07T02:23:46;6.35;;;3.13;;
49824;SDS011;35714;55.708;37.478;2023-08-07T02:26:12;5.78;;;3.22;;
49824;SDS011;35714;55.708;37.478;2023-08-07T02:28:38;9.27;;;2.67;;
49824;SDS011;35714;55.708;37.478;2023-08-07T02:31:04;8.43;;;3.15;;
49824;SDS011;35714;55.708;37.478;2023-08-07T02:33:29;6.63;;;2.80;;
49824;SDS011;35714;55.708;37.478;2023-08-07T02:35:56;5.70;;;3.50;;
49824;SDS011;35714;55.708;37.478;2023-08-07T02:38:22;6.22;;;3.30;;
49824;SDS011;35714;55.708;37.478;2023-08-07T02:40:47;8.20;;;3.72;;
49824;SDS011;35714;55.708;37.478;2023-08-07T02:43:13;6.82;;;3.22;;
49824;SDS011;35714;55.708;37.478;2023-08-07T02:45:39;5.32;;;2.95;;
49824;SDS011;35714;55.708;37.478;2023-08-07T02:48:04;6.45;;;3.65;;
49824;SDS011;35714;55.708;37.478;2023-08-07T02:50:30;5.70;;;3.00;;
49824;SDS011;35714;55.708;37.478;2023-08-07T02:52:58;6.90;;;2.83;;
49824;SDS011;35714;55.708;37.478;2023-08-07T02:55:27;8.23;;;3.13;;
49824;SDS011;35714;55.708;37.478;2023-08-07T02:57:53;8.98;;;3.00;;
49824;SDS011;35714;55.708;37.478;2023-08-07T03:00:19;6.32;;;2.85;;
49824;SDS011;35714;55.708;37.478;2023-08-07T03:02:44;5.82;;;2.97;;
49824;SDS011;35714;55.708;37.478;2023-08-07T03:05:10;6.15;;;3.30;;
49824;SDS011;35714;55.708;37.478;2023-08-07T03:07:36;12.23;;;7.57;;
49824;SDS011;35714;55.708;37.478;2023-08-07T03:10:02;6.18;;;3.42;;
49824;SDS011;35714;55.708;37.478;2023-08-07T03:12:29;5.70;;;3.38;;
49824;SDS011;35714;55.708;37.478;2023-08-07T03:14:55;9.10;;;3.05;;
49824;SDS011;35714;55.708;37.478;2023-08-07T03:17:20;6.15;;;3.10;;
49824;SDS011;35714;55.708;37.478;2023-08-07T03:19:46;8.65;;;3.45;;
49824;SDS011;35714;55.708;37.478;2023-08-07T03:22:12;6.75;;;3.28;;
49824;SDS011;35714;55.708;37.478;2023-08-07T03:24:38;6.78;;;2.92;;
49824;SDS011;35714;55.708;37.478;2023-08-07T03:27:04;7.32;;;3.38;;
49824;SDS011;35714;55.708;37.478;2023-08-07T03:29:29;8.60;;;3.25;;
49824;SDS011;35714;55.708;37.478;2023-08-07T03:31:56;9.10;;;2.92;;
49824;SDS011;35714;55.708;37.478;2023-08-07T03:34:22;6.70;;;2.80;;
49824;SDS011;35714;55.708;37.478;2023-08-07T03:36:48;5.78;;;3.28;;
49824;SDS011;35714;55.708;37.478;2023-08-07T03:39:13;7.57;;;2.65;;
49824;SDS011;35714;55.708;37.478;2023-08-07T03:41:39;5.60;;;3.00;;
49824;SDS011;35714;55.708;37.478;2023-08-07T03:44:07;6.18;;;2.92;;
49824;SDS011;35714;55.708;37.478;2023-08-07T03:46:33;7.63;;;2.65;;
49824;SDS011;35714;55.708;37.478;2023-08-07T03:48:59;8.48;;;3.03;;
49824;SDS011;35714;55.708;37.478;2023-08-07T03:51:27;6.30;;;3.00;;
49824;SDS011;35714;55.708;37.478;2023-08-07T03:53:54;8.40;;;2.75;;
49824;SDS011;35714;55.708;37.478;2023-08-07T03:56:20;8.93;;;2.67;;
49824;SDS011;35714;55.708;37.478;2023-08-07T03:58:46;9.38;;;2.63;;
49824;SDS011;35714;55.708;37.478;2023-08-07T04:01:14;5.22;;;2.60;;
49824;SDS011;35714;55.708;37.478;2023-08-07T04:03:40;6.60;;;2.67;;
49824;SDS011;35714;55.708;37.478;2023-08-07T04:06:06;7.10;;;2.97;;
49824;SDS011;35714;55.708;37.478;2023-08-07T04:08:32;6.18;;;2.40;;
49824;SDS011;35714;55.708;37.478;2023-08-07T04:11:01;5.38;;;2.83;;
49824;SDS011;35714;55.708;37.478;2023-08-07T04:13:28;8.55;;;2.83;;
49824;SDS011;35714;55.708;37.478;2023-08-07T04:15:54;10.90;;;2.95;;
49824;SDS011;35714;55.708;37.478;2023-08-07T04:18:20;7.07;;;2.90;;
49824;SDS011;35714;55.708;37.478;2023-08-07T04:20:52;5.60;;;2.28;;
49824;SDS011;35714;55.708;37.478;2023-08-07T04:23:19;10.32;;;3.30;;
49824;SDS011;35714;55.708;37.478;2023-08-07T04:25:46;8.85;;;3.75;;
49824;SDS011;35714;55.708;37.478;2023-08-07T04:28:12;5.45;;;3.10;;
49824;SDS011;35714;55.708;37.478;2023-08-07T04:30:38;8.02;;;3.28;;
49824;SDS011;35714;55.708;37.478;2023-08-07T04:33:04;5.72;;;2.78;;
49824;SDS011;35714;55.708;37.478;2023-08-07T04:35:30;8.55;;;4.07;;
49824;SDS011;35714;55.708;37.478;2023-08-07T04:37:56;9.48;;;4.38;;
49824;SDS011;35714;55.708;37.478;2023-08-07T04:40:22;6.60;;;2.80;;
49824;SDS011;35714;55.708;37.478;2023-08-07T04:42:51;5.90;;;2.90;;
49824;SDS011;35714;55.708;37.478;2023-08-07T04:45:17;4.78;;;2.15;;
49824;SDS011;35714;55.708;37.478;2023-08-07T04:47:43;7.38;;;3.08;;
49824;SDS011;35714;55.708;37.478;2023-08-07T04:50:08;8.95;;;2.53;;
49824;SDS011;35714;55.708;37.478;2023-08-07T04:52:35;7.40;;;2.92;;
49824;SDS011;35714;55.708;37.478;2023-08-07T04:55:01;8.52;;;2.75;;
49824;SDS011;35714;55.708;37.478;2023-08-07T04:57:28;7.22;;;2.50;;
49824;SDS011;35714;55.708;37.478;2023-08-07T04:59:54;5.28;;;2.72;;
49824;SDS011;35714;55.708;37.478;2023-08-07T05:02:19;5.82;;;2.58;;
49824;SDS011;35714;55.708;37.478;2023-08-07T05:04:45;5.30;;;2.10;;
49824;SDS011;35714;55.708;37.478;2023-08-07T05:07:11;4.80;;;2.20;;
49824;SDS011;35714;55.708;37.478;2023-08-07T05:09:37;6.07;;;2.38;;
49824;SDS011;35714;55.708;37.478;2023-08-07T05:12:03;4.63;;;2.15;;
49824;SDS011;35714;55.708;37.478;2023-08-07T05:14:30;5.55;;;2.13;;
49824;SDS011;35714;55.708;37.478;2023-08-07T05:16:56;4.85;;;1.90;;
49824;SDS011;35714;55.708;37.478;2023-08-07T05:19:21;4.35;;;1.88;;
49824;SDS011;35714;55.708;37.478;2023-08-07T05:21:48;4.47;;;1.90;;
49824;SDS011;35714;55.708;37.478;2023-08-07T05:24:16;4.10;;;1.90;;
49824;SDS011;35714;55.708;37.478;2023-08-07T05:26:42;3.75;;;1.73;;
49824;SDS011;35714;55.708;37.478;2023-08-07T05:29:08;8.60;;;2.30;;
49824;SDS011;35714;55.708;37.478;2023-08-07T05:31:34;5.60;;;2.05;;
49824;SDS011;35714;55.708;37.478;2023-08-07T05:34:00;4.20;;;1.80;;
49824;SDS011;35714;55.708;37.478;2023-08-07T05:36:26;5.72;;;1.70;;
49824;SDS011;35714;55.708;37.478;2023-08-07T05:38:51;8.07;;;1.90;;
49824;SDS011;35714;55.708;37.478;2023-08-07T05:41:17;8.13;;;2.25;;
49824;SDS011;35714;55.708;37.478;2023-08-07T05:43:43;6.07;;;1.70;;
49824;SDS011;35714;55.708;37.478;2023-08-07T05:46:09;5.30;;;1.95;;
49824;SDS011;35714;55.708;37.478;2023-08-07T05:48:34;5.78;;;1.88;;
49824;SDS011;35714;55.708;37.478;2023-08-07T05:51:00;5.40;;;1.90;;
49824;SDS011;35714;55.708;37.478;2023-08-07T05:53:26;6.75;;;2.35;;
49824;SDS011;35714;55.708;37.478;2023-08-07T05:55:52;7.10;;;2.85;;
49824;SDS011;35714;55.708;37.478;2023-08-07T05:58:18;7.68;;;2.08;;
49824;SDS011;35714;55.708;37.478;2023-08-07T06:00:44;8.20;;;2.20;;
49824;SDS011;35714;55.708;37.478;2023-08-07T06:03:10;6.75;;;2.40;;
49824;SDS011;35714;55.708;37.478;2023-08-07T06:05:35;6.35;;;2.30;;
49824;SDS011;35714;55.708;37.478;2023-08-07T06:08:01;7.35;;;2.25;;
49824;SDS011;35714;55.708;37.478;2023-08-07T06:10:27;5.32;;;2.08;;
49824;SDS011;35714;55.708;37.478;2023-08-07T06:12:52;5.10;;;2.50;;
49824;SDS011;35714;55.708;37.478;2023-08-07T06:15:18;4.32;;;1.50;;
49824;SDS011;35714;55.708;37.478;2023-08-07T06:17:44;7.57;;;1.80;;
49824;SDS011;35714;55.708;37.478;2023-08-07T06:20:11;7.18;;;1.75;;
49824;SDS011;35714;55.708;37.478;2023-08-07T06:22:40;5.63;;;2.22;;
49824;SDS011;35714;55.708;37.478;2023-08-07T06:25:06;6.57;;;1.95;;
49824;SDS011;35714;55.708;37.478;2023-08-07T06:27:32;6.38;;;1.70;;
49824;SDS011;35714;55.708;37.478;2023-08-07T06:29:58;9.73;;;1.80;;
49824;SDS011;35714;55.708;37.478;2023-08-07T06:32:27;5.95;;;1.30;;
49824;SDS011;35714;55.708;37.478;2023-08-07T06:34:52;11.50;;;2.42;;
49824;SDS011;35714;55.708;37.478;2023-08-07T06:37:19;4.75;;;1.80;;
49824;SDS011;35714;55.708;37.478;2023-08-07T06:39:45;7.80;;;1.83;;
49824;SDS011;35714;55.708;37.478;2023-08-07T06:42:12;9.40;;;1.63;;
49824;SDS011;35714;55.708;37.478;2023-08-07T06:44:41;5.72;;;1.95;;
49824;SDS011;35714;55.708;37.478;2023-08-07T06:47:07;4.90;;;1.95;;
49824;SDS011;35714;55.708;37.478;2023-08-07T06:49:34;8.35;;;1.65;;
49824;SDS011;35714;55.708;37.478;2023-08-07T06:52:00;5.97;;;1.35;;
49824;SDS011;35714;55.708;37.478;2023-08-07T06:54:26;5.30;;;1.40;;
49824;SDS011;35714;55.708;37.478;2023-08-07T06:56:51;7.70;;;1.92;;
49824;SDS011;35714;55.708;37.478;2023-08-07T06:59:17;6.03;;;1.80;;
49824;SDS011;35714;55.708;37.478;2023-08-07T07:01:42;5.68;;;1.80;;
49824;SDS011;35714;55.708;37.478;2023-08-07T07:04:08;6.45;;;1.90;;
49824;SDS011;35714;55.708;37.478;2023-08-07T07:06:34;9.07;;;1.60;;
49824;SDS011;35714;55.708;37.478;2023-08-07T07:08:59;4.63;;;1.63;;
49824;SDS011;35714;55.708;37.478;2023-08-07T07:11:25;10.70;;;2.47;;
49824;SDS011;35714;55.708;37.478;2023-08-07T07:13:51;5.22;;;1.70;;
49824;SDS011;35714;55.708;37.478;2023-08-07T07:16:20;3.78;;;1.63;;
49824;SDS011;35714;55.708;37.478;2023-08-07T07:18:47;4.68;;;1.40;;
49824;SDS011;35714;55.708;37.478;2023-08-07T07:21:14;6.60;;;1.77;;
49824;SDS011;35714;55.708;37.478;2023-08-07T07:23:40;6.10;;;1.60;;
49824;SDS011;35714;55.708;37.478;2023-08-07T07:26:06;5.70;;;1.70;;
49824;SDS011;35714;55.708;37.478;2023-08-07T07:28:31;6.93;;;1.63;;
49824;SDS011;35714;55.708;37.478;2023-08-07T07:30:57;8.15;;;1.60;;
49824;SDS011;35714;55.708;37.478;2023-08-07T07:33:23;5.60;;;1.70;;
49824;SDS011;35714;55.708;37.478;2023-08-07T07:35:49;9.65;;;1.80;;
49824;SDS011;35714;55.708;37.478;2023-08-07T07:38:14;6.20;;;1.70;;
49824;SDS011;35714;55.708;37.478;2023-08-07T07:40:41;4.50;;;1.70;;
49824;SDS011;35714;55.708;37.478;2023-08-07T07:43:07;8.75;;;2.88;;
49824;SDS011;35714;55.708;37.478;2023-08-07T07:45:33;7.22;;;1.50;;
49824;SDS011;35714;55.708;37.478;2023-08-07T07:48:04;6.57;;;1.52;;
49824;SDS011;35714;55.708;37.478;2023-08-07T07:50:31;12.43;;;2.47;;
49824;SDS011;35714;55.708;37.478;2023-08-07T07:52:57;11.32;;;1.80;;
49824;SDS011;35714;55.708;37.478;2023-08-07T07:55:24;9.23;;;1.55;;
49824;SDS011;35714;55.708;37.478;2023-08-07T07:57:50;8.35;;;1.70;;
49824;SDS011;35714;55.708;37.478;2023-08-07T08:00:16;22.27;;;2.38;;
49824;SDS011;35714;55.708;37.478;2023-08-07T08:02:41;7.07;;;1.55;;
49824;SDS011;35714;55.708;37.478;2023-08-07T08:05:08;5.75;;;1.58;;
49824;SDS011;35714;55.708;37.478;2023-08-07T08:07:38;9.63;;;2.00;;
49824;SDS011;35714;55.708;37.478;2023-08-07T08:10:07;8.48;;;2.10;;
49824;SDS011;35714;55.708;37.478;2023-08-07T08:12:36;4.80;;;1.42;;
49824;SDS011;35714;55.708;37.478;2023-08-07T08:15:03;9.75;;;1.70;;
49824;SDS011;35714;55.708;37.478;2023-08-07T08:17:32;5.82;;;1.77;;
49824;SDS011;35714;55.708;37.478;2023-08-07T08:19:57;7.05;;;1.75;;
49824;SDS011;35714;55.708;37.478;2023-08-07T08:22:24;9.68;;;1.67;;
49824;SDS011;35714;55.708;37.478;2023-08-07T08:24:50;6.22;;;1.60;;
49824;SDS011;35714;55.708;37.478;2023-08-07T08:27:15;7.07;;;1.40;;
49824;SDS011;35714;55.708;37.478;2023-08-07T08:29:43;5.03;;;1.52;;
49824;SDS011;35714;55.708;37.478;2023-08-07T08:32:10;25.60;;;2.70;;
49824;SDS011;35714;55.708;37.478;2023-08-07T08:34:36;7.57;;;1.30;;
49824;SDS011;35714;55.708;37.478;2023-08-07T08:37:01;6.07;;;1.63;;
49824;SDS011;35714;55.708;37.478;2023-08-07T08:39:27;7.80;;;1.38;;
49824;SDS011;35714;55.708;37.478;2023-08-07T08:41:53;6.15;;;1.10;;
49824;SDS011;35714;55.708;37.478;2023-08-07T08:44:19;5.60;;;1.27;;
49824;SDS011;35714;55.708;37.478;2023-08-07T08:46:45;7.43;;;1.42;;
49824;SDS011;35714;55.708;37.478;2023-08-07T08:49:15;22.33;;;2.33;;
49824;SDS011;35714;55.708;37.478;2023-08-07T08:51:44;9.63;;;1.30;;
49824;SDS011;35714;55.708;37.478;2023-08-07T08:54:10;4.30;;;1.92;;
49824;SDS011;35714;55.708;37.478;2023-08-07T08:56:37;7.47;;;1.48;;
49824;SDS011;35714;55.708;37.478;2023-08-07T08:59:03;6.03;;;1.10;;
49824;SDS011;35714;55.708;37.478;2023-08-07T09:01:28;11.75;;;2.78;;
49824;SDS011;35714;55.708;37.478;2023-08-07T09:03:55;5.80;;;1.63;;
49824;SDS011;35714;55.708;37.478;2023-08-07T09:06:21;8.70;;;1.98;;
49824;SDS011;35714;55.708;37.478;2023-08-07T09:08:48;5.38;;;1.40;;
49824;SDS011;35714;55.708;37.478;2023-08-07T09:11:17;13.35;;;2.17;;
49824;SDS011;35714;55.708;37.478;2023-08-07T09:13:44;5.10;;;1.25;;
49824;SDS011;35714;55.708;37.478;2023-08-07T09:16:13;5.95;;;1.40;;
49824;SDS011;35714;55.708;37.478;2023-08-07T09:18:40;3.35;;;1.25;;
49824;SDS011;35714;55.708;37.478;2023-08-07T09:21:06;4.47;;;1.30;;
49824;SDS011;35714;55.708;37.478;2023-08-07T09:23:31;4.30;;;1.35;;
49824;SDS011;35714;55.708;37.478;2023-08-07T09:26:01;6.35;;;1.00;;
49824;SDS011;35714;55.708;37.478;2023-08-07T09:28:28;9.82;;;1.70;;
49824;SDS011;35714;55.708;37.478;2023-08-07T09:30:55;7.35;;;1.30;;
49824;SDS011;35714;55.708;37.478;2023-08-07T09:33:28;3.83;;;1.48;;
49824;SDS011;35714;55.708;37.478;2023-08-07T09:35:58;8.18;;;1.45;;
49824;SDS011;35714;55.708;37.478;2023-08-07T09:38:27;7.00;;;1.20;;
49824;SDS011;35714;55.708;37.478;2023-08-07T09:40:57;4.75;;;1.20;;
49824;SDS011;35714;55.708;37.478;2023-08-07T09:43:23;4.70;;;1.30;;
49824;SDS011;35714;55.708;37.478;2023-08-07T09:45:48;7.88;;;1.40;;
49824;SDS011;35714;55.708;37.478;2023-08-07T09:48:23;4.68;;;1.27;;
49824;SDS011;35714;55.708;37.478;2023-08-07T09:50:50;6.65;;;1.38;;
49824;SDS011;35714;55.708;37.478;2023-08-07T09:53:16;3.03;;;1.10;;
49824;SDS011;35714;55.708;37.478;2023-08-07T09:55:42;5.63;;;1.15;;
49824;SDS011;35714;55.708;37.478;2023-08-07T09:58:08;8.10;;;1.58;;
49824;SDS011;35714;55.708;37.478;2023-08-07T10:00:34;7.10;;;1.42;;
49824;SDS011;35714;55.708;37.478;2023-08-07T10:03:01;3.97;;;1.20;;
49824;SDS011;35714;55.708;37.478;2023-08-07T10:05:27;9.82;;;1.80;;
49824;SDS011;35714;55.708;37.478;2023-08-07T10:07:53;8.65;;;1.83;;
49824;SDS011;35714;55.708;37.478;2023-08-07T10:10:20;5.75;;;1.88;;
49824;SDS011;35714;55.708;37.478;2023-08-07T10:12:46;10.48;;;2.03;;
49824;SDS011;35714;55.708;37.478;2023-08-07T10:15:14;5.95;;;1.80;;
49824;SDS011;35714;55.708;37.478;2023-08-07T10:17:40;12.32;;;1.92;;
49824;SDS011;35714;55.708;37.478;2023-08-07T10:20:06;13.40;;;2.30;;
49824;SDS011;35714;55.708;37.478;2023-08-07T10:22:33;3.75;;;1.50;;
49824;SDS011;35714;55.708;37.478;2023-08-07T10:25:02;4.60;;;1.42;;
49824;SDS011;35714;55.708;37.478;2023-08-07T10:27:31;13.02;;;1.95;;
49824;SDS011;35714;55.708;37.478;2023-08-07T10:30:01;2.75;;;1.20;;
49824;SDS011;35714;55.708;37.478;2023-08-07T10:32:33;5.78;;;1.60;;
49824;SDS011;35714;55.708;37.478;2023-08-07T10:35:04;6.38;;;1.35;;
49824;SDS011;35714;55.708;37.478;2023-08-07T10:40:06;6.05;;;1.33;;
49824;SDS011;35714;55.708;37.478;2023-08-07T10:45:22;4.00;;;1.38;;
49824;SDS011;35714;55.708;37.478;2023-08-07T10:50:29;10.10;;;1.80;;
49824;SDS011;35714;55.708;37.478;2023-08-07T10:52:56;6.65;;;1.70;;
49824;SDS011;35714;55.708;37.478;2023-08-07T10:55:24;5.80;;;1.30;;
49824;SDS011;35714;55.708;37.478;2023-08-07T10:57:50;3.95;;;1.30;;
49824;SDS011;35714;55.708;37.478;2023-08-07T11:00:16;6.53;;;1.42;;
49824;SDS011;35714;55.708;37.478;2023-08-07T11:02:42;2.45;;;1.10;;
49824;SDS011;35714;55.708;37.478;2023-08-07T11:05:08;5.28;;;1.40;;
49824;SDS011;35714;55.708;37.478;2023-08-07T11:07:34;3.08;;;1.30;;
49824;SDS011;35714;55.708;37.478;2023-08-07T11:09:59;3.75;;;1.33;;
49824;SDS011;35714;55.708;37.478;2023-08-07T11:12:26;3.55;;;1.17;;
49824;SDS011;35714;55.708;37.478;2023-08-07T11:14:52;3.67;;;1.38;;
49824;SDS011;35714;55.708;37.478;2023-08-07T11:17:24;4.32;;;1.50;;
49824;SDS011;35714;55.708;37.478;2023-08-07T11:19:51;17.50;;;2.47;;
49824;SDS011;35714;55.708;37.478;2023-08-07T11:22:16;6.75;;;3.25;;
49824;SDS011;35714;55.708;37.478;2023-08-07T11:24:42;14.30;;;2.53;;
49824;SDS011;35714;55.708;37.478;2023-08-07T11:27:08;5.13;;;2.20;;
49824;SDS011;35714;55.708;37.478;2023-08-07T11:29:34;6.28;;;2.25;;
49824;SDS011;35714;55.708;37.478;2023-08-07T11:32:00;4.82;;;1.52;;
49824;SDS011;35714;55.708;37.478;2023-08-07T11:34:26;5.50;;;1.60;;
49824;SDS011;35714;55.708;37.478;2023-08-07T11:36:51;5.30;;;1.80;;
49824;SDS011;35714;55.708;37.478;2023-08-07T11:39:19;9.15;;;1.95;;
49824;SDS011;35714;55.708;37.478;2023-08-07T11:41:45;4.30;;;1.63;;
49824;SDS011;35714;55.708;37.478;2023-08-07T11:44:12;5.22;;;1.58;;
49824;SDS011;35714;55.708;37.478;2023-08-07T11:46:38;4.03;;;1.38;;
49824;SDS011;35714;55.708;37.478;2023-08-07T11:49:04;7.18;;;2.20;;
49824;SDS011;35714;55.708;37.478;2023-08-07T11:51:30;5.45;;;1.50;;
49824;SDS011;35714;55.708;37.478;2023-08-07T11:53:56;6.32;;;1.83;;
49824;SDS011;35714;55.708;37.478;2023-08-07T11:56:24;5.90;;;1.70;;
49824;SDS011;35714;55.708;37.478;2023-08-07T11:58:51;3.60;;;1.60;;
49824;SDS011;35714;55.708;37.478;2023-08-07T12:01:20;6.85;;;3.97;;
49824;SDS011;35714;55.708;37.478;2023-08-07T12:03:52;14.52;;;2.72;;
49824;SDS011;35714;55.708;37.478;2023-08-07T12:06:23;12.48;;;4.93;;
49824;SDS011;35714;55.708;37.478;2023-08-07T12:08:52;7.78;;;3.17;;
49824;SDS011;35714;55.708;37.478;2023-08-07T12:11:20;8.38;;;1.90;;
49824;SDS011;35714;55.708;37.478;2023-08-07T12:13:49;3.67;;;1.65;;
49824;SDS011;35714;55.708;37.478;2023-08-07T12:16:15;9.57;;;2.78;;
49824;SDS011;35714;55.708;37.478;2023-08-07T12:18:49;7.45;;;3.55;;
49824;SDS011;35714;55.708;37.478;2023-08-07T12:21:17;8.98;;;3.58;;
49824;SDS011;35714;55.708;37.478;2023-08-07T12:23:49;8.60;;;2.33;;
49824;SDS011;35714;55.708;37.478;2023-08-07T12:26:16;9.35;;;2.28;;
49824;SDS011;35714;55.708;37.478;2023-08-07T12:28:42;24.10;;;5.82;;
49824;SDS011;35714;55.708;37.478;2023-08-07T12:31:08;4.65;;;2.13;;
49824;SDS011;35714;55.708;37.478;2023-08-07T12:33:34;7.22;;;1.98;;
49824;SDS011;35714;55.708;37.478;2023-08-07T12:36:01;6.38;;;2.60;;
49824;SDS011;35714;55.708;37.478;2023-08-07T12:38:28;12.57;;;2.35;;
49824;SDS011;35714;55.708;37.478;2023-08-07T12:40:54;4.50;;;2.22;;
49824;SDS011;35714;55.708;37.478;2023-08-07T12:43:20;3.53;;;1.65;;
49824;SDS011;35714;55.708;37.478;2023-08-07T12:45:47;5.13;;;2.20;;
49824;SDS011;35714;55.708;37.478;2023-08-07T12:48:13;8.20;;;1.80;;
49824;SDS011;35714;55.708;37.478;2023-08-07T12:50:39;17.58;;;2.97;;
49824;SDS011;35714;55.708;37.478;2023-08-07T12:53:06;5.90;;;1.85;;
49824;SDS011;35714;55.708;37.478;2023-08-07T12:55:34;7.25;;;2.13;;
49824;SDS011;35714;55.708;37.478;2023-08-07T12:58:00;7.55;;;1.92;;
49824;SDS011;35714;55.708;37.478;2023-08-07T13:00:26;5.32;;;1.70;;
49824;SDS011;35714;55.708;37.478;2023-08-07T13:02:52;6.50;;;2.20;;
49824;SDS011;35714;55.708;37.478;2023-08-07T13:05:21;6.70;;;2.55;;
49824;SDS011;35714;55.708;37.478;2023-08-07T13:07:47;4.97;;;1.65;;
49824;SDS011;35714;55.708;37.478;2023-08-07T13:10:15;4.65;;;2.28;;
49824;SDS011;35714;55.708;37.478;2023-08-07T13:12:43;7.20;;;2.55;;
49824;SDS011;35714;55.708;37.478;2023-08-07T13:15:13;14.15;;;2.25;;
49824;SDS011;35714;55.708;37.478;2023-08-07T13:17:40;7.63;;;2.33;;
49824;SDS011;35714;55.708;37.478;2023-08-07T13:20:08;4.35;;;2.08;;
49824;SDS011;35714;55.708;37.478;2023-08-07T13:22:39;8.60;;;2.80;;
49824;SDS011;35714;55.708;37.478;2023-08-07T13:25:07;7.45;;;1.92;;
49824;SDS011;35714;55.708;37.478;2023-08-07T13:27:33;3.63;;;1.60;;
49824;SDS011;35714;55.708;37.478;2023-08-07T13:30:00;6.28;;;2.17;;
49824;SDS011;35714;55.708;37.478;2023-08-07T13:32:26;4.18;;;1.50;;
49824;SDS011;35714;55.708;37.478;2023-08-07T13:34:52;3.72;;;1.85;;
49824;SDS011;35714;55.708;37.478;2023-08-07T13:37:19;8.00;;;1.58;;
49824;SDS011;35714;55.708;37.478;2023-08-07T13:39:44;4.35;;;1.70;;
49824;SDS011;35714;55.708;37.478;2023-08-07T13:42:10;8.20;;;1.83;;
49824;SDS011;35714;55.708;37.478;2023-08-07T13:44:36;4.25;;;1.85;;
49824;SDS011;35714;55.708;37.478;2023-08-07T13:47:04;9.57;;;1.80;;
49824;SDS011;35714;55.708;37.478;2023-08-07T13:49:31;6.13;;;1.70;;
49824;SDS011;35714;55.708;37.478;2023-08-07T13:51:57;4.07;;;1.55;;
49824;SDS011;35714;55.708;37.478;2023-08-07T13:54:23;6.35;;;1.83;;
49824;SDS011;35714;55.708;37.478;2023-08-07T13:56:49;6.18;;;1.70;;
49824;SDS011;35714;55.708;37.478;2023-08-07T13:59:16;5.05;;;1.75;;
49824;SDS011;35714;55.708;37.478;2023-08-07T14:01:42;32.67;;;4.70;;
49824;SDS011;35714;55.708;37.478;2023-08-07T14:04:08;7.05;;;2.47;;
49824;SDS011;35714;55.708;37.478;2023-08-07T14:06:33;6.05;;;1.85;;
49824;SDS011;35714;55.708;37.478;2023-08-07T14:08:59;4.10;;;1.58;;
49824;SDS011;35714;55.708;37.478;2023-08-07T14:11:25;3.20;;;1.40;;
49824;SDS011;35714;55.708;37.478;2023-08-07T14:13:56;7.93;;;2.00;;
49824;SDS011;35714;55.708;37.478;2023-08-07T14:16:22;5.20;;;1.55;;
49824;SDS011;35714;55.708;37.478;2023-08-07T14:18:49;6.55;;;1.50;;
49824;SDS011;35714;55.708;37.478;2023-08-07T14:21:15;4.43;;;1.67;;
49824;SDS011;35714;55.708;37.478;2023-08-07T14:23:41;5.22;;;1.50;;
49824;SDS011;35714;55.708;37.478;2023-08-07T14:26:08;9.52;;;2.13;;
49824;SDS011;35714;55.708;37.478;2023-08-07T14:28:34;5.95;;;2.50;;
49824;SDS011;35714;55.708;37.478;2023-08-07T14:30:59;2.97;;;1.70;;
49824;SDS011;35714;55.708;37.478;2023-08-07T14:33:26;10.32;;;1.50;;
49824;SDS011;35714;55.708;37.478;2023-08-07T14:35:53;5.63;;;1.55;;
49824;SDS011;35714;55.708;37.478;2023-08-07T14:38:19;3.28;;;1.42;;
49824;SDS011;35714;55.708;37.478;2023-08-07T14:40:45;5.57;;;1.83;;
49824;SDS011;35714;55.708;37.478;2023-08-07T14:43:11;5.45;;;1.98;;